Thunder radar more information blitzortung!


Radar de pluja more information rain snow radar


Visita la nostra xarxa de llocs de meteo:

Template documentation
and downloads

And another site



No particular awareness of the weather is required.    There are no Weather-warnings

Pagina Historial Weather Underground text

Diari Resum Juny 14, 2016 Unitats:  Mètric    Imperial   Tant
« Previous Dia
SegĂźent Dia »
Diari Setmana Mensual Anual Personalitzada
  Maxima: Minima: Media:
Temperatura: 29.8 °C 17.7 °C 24.4 °C
Punt de rosada: 16.1 °C 4.1 °C 8.6 °C
Humitat: 76 % 21 % 39 %
Wind Speed: 29.6 km/h 0.0 km/h 9.5 km/h
RĂ fegues de vent: 29.6 km/h - -
Vent:- - South
Pression baro: 1010.0 hPa 1000.9 hPa -
Precipitacions: 0.0 mm    
Historical Graphs
 
 
Dades de taula per Juny 14, 2016
Temps Temperatura Punt de rosada Pression baro Vent Wind Speed RĂ fegues de vent Humitat Rainfall Rate (Hourly)
00:00 20.5 °C 16.1 °C 1009.0 hPa ENE 13.0 km/h 13.0 km/h 76 % 0.0 mm
00:10 17.9 °C 13.0 °C 1010.0 hPa NNE 3.2 km/h 3.2 km/h 73 % 0.0 mm
00:20 17.7 °C 12.2 °C 1010.0 hPa NNE 3.2 km/h 3.2 km/h 70 % 0.0 mm
00:30 17.9 °C 11.4 °C 1010.0 hPa NNE 3.2 km/h 3.2 km/h 66 % 0.0 mm
00:40 18.1 °C 10.9 °C 1010.0 hPa NNE 3.2 km/h 3.2 km/h 63 % 0.0 mm
00:50 18.2 °C 10.8 °C 1010.0 hPa NNE 3.2 km/h 3.2 km/h 62 % 0.0 mm
01:00 18.1 °C 10.7 °C 1010.0 hPa NNE 3.2 km/h 3.2 km/h 62 % 0.0 mm
01:10 18.0 °C 10.1 °C 1010.0 hPa NNE 3.2 km/h 3.2 km/h 60 % 0.0 mm
01:20 17.9 °C 10.5 °C 1009.0 hPa NNE 3.2 km/h 3.2 km/h 62 % 0.0 mm
01:30 17.8 °C 9.7 °C 1010.0 hPa NNE 3.2 km/h 3.2 km/h 59 % 0.0 mm
01:40 17.7 °C 9.8 °C 1010.0 hPa NNE 3.2 km/h 3.2 km/h 60 % 0.0 mm
01:50 17.7 °C 9.6 °C 1010.0 hPa NNE 3.2 km/h 3.2 km/h 59 % 0.0 mm
02:00 18.1 °C 8.9 °C 1010.0 hPa NNE 3.2 km/h 3.2 km/h 55 % 0.0 mm
02:10 18.1 °C 9.2 °C 1010.0 hPa NNE 3.2 km/h 3.2 km/h 56 % 0.0 mm
02:20 18.3 °C 9.1 °C 1010.0 hPa NNE 3.2 km/h 3.2 km/h 55 % 0.0 mm
02:30 18.7 °C 9.4 °C 1010.0 hPa NNE 3.2 km/h 3.2 km/h 55 % 0.0 mm
02:40 19.3 °C 9.8 °C 1010.0 hPa NNE 1.6 km/h 3.2 km/h 54 % 0.0 mm
02:50 19.6 °C 10.1 °C 1010.0 hPa ENE 1.6 km/h 3.2 km/h 54 % 0.0 mm
03:00 19.2 °C 9.9 °C 1010.0 hPa ESE 1.6 km/h 3.2 km/h 55 % 0.0 mm
03:10 19.1 °C 9.3 °C 1010.0 hPa SW 1.6 km/h 6.4 km/h 53 % 0.0 mm
03:20 18.9 °C 9.4 °C 1010.0 hPa West 4.8 km/h 6.4 km/h 54 % 0.0 mm
03:30 18.6 °C 8.8 °C 1010.0 hPa West 3.2 km/h 6.4 km/h 53 % 0.0 mm
03:40 18.7 °C 8.9 °C 1010.0 hPa Calm   3.2 km/h 53 % 0.0 mm
03:50 19.0 °C 8.6 °C 1010.0 hPa SW 3.2 km/h 8.0 km/h 51 % 0.0 mm
04:00 19.6 °C 8.9 °C 1009.0 hPa WSW 4.8 km/h 8.0 km/h 50 % 0.0 mm
04:10 20.1 °C 9.3 °C 1009.0 hPa West 4.8 km/h 6.4 km/h 50 % 0.0 mm
04:20 20.7 °C 9.9 °C 1008.0 hPa WSW 1.6 km/h 9.7 km/h 50 % 0.0 mm
04:30 20.9 °C 9.8 °C 1008.0 hPa SW 4.8 km/h 8.0 km/h 49 % 0.0 mm
04:40 21.2 °C 9.4 °C 1008.0 hPa SW 3.2 km/h 6.4 km/h 47 % 0.0 mm
04:50 21.6 °C 9.8 °C 1008.0 hPa WSW 4.8 km/h 8.0 km/h 47 % 0.0 mm
05:00 21.6 °C 9.2 °C 1008.0 hPa WSW 4.8 km/h 9.7 km/h 45 % 0.0 mm
05:10 22.3 °C 9.8 °C 1008.0 hPa SW 3.2 km/h 8.0 km/h 45 % 0.0 mm
05:20 22.7 °C 9.8 °C 1008.0 hPa SW 3.2 km/h 8.0 km/h 44 % 0.0 mm
05:30 23.3 °C 10.0 °C 1008.0 hPa SW 4.8 km/h 6.4 km/h 43 % 0.0 mm
05:40 23.8 °C 9.8 °C 1008.0 hPa WSW 8.0 km/h 8.0 km/h 41 % 0.0 mm
05:50 23.9 °C 9.5 °C 1008.0 hPa WSW 8.0 km/h 9.7 km/h 40 % 0.0 mm
06:00 24.3 °C 9.8 °C 1008.0 hPa WSW 1.6 km/h 4.8 km/h 40 % 0.0 mm
06:10 24.6 °C 9.3 °C 1008.0 hPa WSW 8.0 km/h 8.0 km/h 38 % 0.0 mm
06:20 24.7 °C 9.0 °C 1007.0 hPa SW 4.8 km/h 11.3 km/h 37 % 0.0 mm
11:20 24.6 °C 8.6 °C 1007.0 hPa West 3.7 km/h 9.0 km/h 36 % 0.0 mm
11:25 24.1 °C 7.7 °C 1007.0 hPa West 11.1 km/h 11.1 km/h 35 % 0.0 mm
11:30 24.0 °C 7.6 °C 1007.0 hPa WSW 13.0 km/h 13.0 km/h 35 % 0.0 mm
11:35 24.5 °C 8.1 °C 1007.0 hPa SE 9.3 km/h 9.3 km/h 35 % 0.0 mm
11:40 24.6 °C 7.7 °C 1007.0 hPa WSW 16.7 km/h 16.7 km/h 34 % 0.0 mm
11:45 24.7 °C 7.8 °C 1007.0 hPa NW 13.0 km/h 13.0 km/h 34 % 0.0 mm
11:50 25.6 °C 8.6 °C 1007.0 hPa WSW 7.4 km/h 7.4 km/h 34 % 0.0 mm
11:55 25.6 °C 8.1 °C 1007.0 hPa WSW 9.3 km/h 9.3 km/h 33 % 0.0 mm
12:01 25.4 °C 7.5 °C 1007.0 hPa ESE 7.4 km/h 7.4 km/h 32 % 0.0 mm
12:06 25.5 °C 7.6 °C 1007.0 hPa WSW 16.9 km/h 16.9 km/h 32 % 0.0 mm
12:11 25.6 °C 8.1 °C 1007.0 hPa WNW 2.6 km/h 3.9 km/h 33 % 0.0 mm
12:16 25.6 °C 7.7 °C 1007.0 hPa NW 3.7 km/h 4.2 km/h 32 % 0.0 mm
12:21 26.0 °C 8.0 °C 1007.0 hPa NW 9.0 km/h 9.0 km/h 32 % 0.0 mm
12:26 26.5 °C 8.4 °C 1007.0 hPa SSW 9.3 km/h 9.3 km/h 32 % 0.0 mm
12:31 26.5 °C 8.0 °C 1007.0 hPa WSW 13.0 km/h 13.0 km/h 31 % 0.0 mm
12:36 26.1 °C 7.2 °C 1007.0 hPa SW 11.1 km/h 11.1 km/h 30 % 0.0 mm
12:41 26.6 °C 7.6 °C 1007.0 hPa West 5.6 km/h 6.9 km/h 30 % 0.0 mm
12:46 26.6 °C 7.1 °C 1006.0 hPa North 16.7 km/h 16.7 km/h 29 % 0.0 mm
12:51 26.6 °C 7.6 °C 1006.0 hPa SW 11.9 km/h 11.9 km/h 30 % 0.0 mm
12:56 26.8 °C 7.8 °C 1006.0 hPa WSW 11.4 km/h 11.4 km/h 30 % 0.0 mm
13:01 26.8 °C 7.8 °C 1006.0 hPa ESE 9.3 km/h 9.3 km/h 30 % 0.0 mm
13:06 26.8 °C 7.8 °C 1006.0 hPa West 10.0 km/h 10.0 km/h 30 % 0.0 mm
13:11 26.9 °C 7.8 °C 1006.0 hPa West 6.4 km/h 6.4 km/h 30 % 0.0 mm
13:21 27.8 °C 8.6 °C 1006.0 hPa NNE 8.7 km/h 8.7 km/h 30 % 0.0 mm
13:26 27.6 °C 8.4 °C 1006.0 hPa WSW 7.4 km/h 7.4 km/h 30 % 0.0 mm
13:31 28.0 °C 8.8 °C 1006.0 hPa WNW 7.4 km/h 7.4 km/h 30 % 0.0 mm
13:36 28.1 °C 8.4 °C 1006.0 hPa South 9.3 km/h 9.3 km/h 29 % 0.0 mm
13:41 28.4 °C 8.7 °C 1006.0 hPa West 9.3 km/h 9.3 km/h 29 % 0.0 mm
13:46 28.4 °C 8.1 °C 1006.0 hPa WSW 20.4 km/h 20.4 km/h 28 % 0.0 mm
13:51 28.1 °C 7.9 °C 1006.0 hPa SSW 7.4 km/h 7.4 km/h 28 % 0.0 mm
13:56 28.7 °C 7.8 °C 1006.0 hPa WSW 13.7 km/h 13.7 km/h 27 % 0.0 mm
14:01 28.5 °C 8.2 °C 1006.0 hPa WSW 9.3 km/h 9.3 km/h 28 % 0.0 mm
14:06 28.8 °C 8.4 °C 1006.0 hPa WSW 15.1 km/h 15.1 km/h 28 % 0.0 mm
14:11 28.9 °C 8.0 °C 1006.0 hPa West 5.6 km/h 5.6 km/h 27 % 0.0 mm
14:16 28.8 °C 7.4 °C 1006.0 hPa WSW 13.0 km/h 13.0 km/h 26 % 0.0 mm
14:21 28.4 °C 7.1 °C 1006.0 hPa SW 13.0 km/h 13.0 km/h 26 % 0.0 mm
14:26 28.9 °C 7.4 °C 1006.0 hPa SW 9.3 km/h 9.3 km/h 26 % 0.0 mm
14:31 29.0 °C 7.0 °C 1006.0 hPa WSW 9.3 km/h 9.7 km/h 25 % 0.0 mm
14:36 28.7 °C 7.3 °C 1006.0 hPa WSW 13.0 km/h 13.0 km/h 26 % 0.0 mm
14:41 28.9 °C 8.0 °C 1006.0 hPa SW 7.4 km/h 7.4 km/h 27 % 0.0 mm
14:46 28.9 °C 7.4 °C 1005.0 hPa West 11.1 km/h 11.1 km/h 26 % 0.0 mm
14:51 28.8 °C 7.4 °C 1005.0 hPa NNE 9.3 km/h 9.3 km/h 26 % 0.0 mm
14:56 29.1 °C 7.1 °C 1005.0 hPa West 6.4 km/h 6.4 km/h 25 % 0.0 mm
15:01 29.2 °C 7.2 °C 1005.0 hPa West 9.3 km/h 9.3 km/h 25 % 0.0 mm
15:06 29.4 °C 7.3 °C 1005.0 hPa WSW 7.4 km/h 7.4 km/h 25 % 0.0 mm
15:11 29.8 °C 7.7 °C 1005.0 hPa West 9.3 km/h 9.3 km/h 25 % 0.0 mm
15:16 29.7 °C 7.6 °C 1005.0 hPa WNW 9.3 km/h 10.0 km/h 25 % 0.0 mm
15:21 29.2 °C 6.6 °C 1005.0 hPa West 14.8 km/h 14.8 km/h 24 % 0.0 mm
15:26 29.4 °C 7.3 °C 1005.0 hPa West 14.8 km/h 14.8 km/h 25 % 0.0 mm
15:31 29.5 °C 6.8 °C 1005.0 hPa SW 7.4 km/h 7.4 km/h 24 % 0.0 mm
15:36 29.6 °C 6.9 °C 1005.0 hPa West 13.0 km/h 13.0 km/h 24 % 0.0 mm
15:41 29.5 °C 6.8 °C 1005.0 hPa West 15.1 km/h 15.1 km/h 24 % 0.0 mm
15:46 29.2 °C 6.6 °C 1003.9 hPa WSW 14.0 km/h 14.0 km/h 24 % 0.0 mm
15:51 29.4 °C 6.7 °C 1003.9 hPa SSW 9.3 km/h 9.3 km/h 24 % 0.0 mm
15:56 29.3 °C 6.0 °C 1003.9 hPa SW 22.2 km/h 22.2 km/h 23 % 0.0 mm
16:01 29.4 °C 6.7 °C 1003.9 hPa NNW 13.0 km/h 13.0 km/h 24 % 0.0 mm
16:06 29.3 °C 6.6 °C 1003.9 hPa NW 9.3 km/h 9.3 km/h 24 % 0.0 mm
16:11 29.5 °C 6.8 °C 1003.9 hPa NW 6.4 km/h 6.4 km/h 24 % 0.0 mm
16:16 29.7 °C 6.3 °C 1002.9 hPa SW 13.0 km/h 15.6 km/h 23 % 0.0 mm
16:21 29.4 °C 6.1 °C 1002.9 hPa West 13.0 km/h 13.0 km/h 23 % 0.0 mm
16:31 29.0 °C 5.8 °C 1003.9 hPa WSW 29.6 km/h 29.6 km/h 23 % 0.0 mm
16:36 29.0 °C 6.4 °C 1003.9 hPa NNE 9.3 km/h 9.7 km/h 24 % 0.0 mm
16:41 29.2 °C 6.6 °C 1003.9 hPa WSW 16.7 km/h 16.7 km/h 24 % 0.0 mm
16:46 29.0 °C 5.8 °C 1002.9 hPa WSW 13.0 km/h 13.0 km/h 23 % 0.0 mm
16:51 29.0 °C 6.4 °C 1002.9 hPa WSW 12.2 km/h 12.2 km/h 24 % 0.0 mm
16:56 29.1 °C 6.4 °C 1002.9 hPa WSW 16.7 km/h 16.7 km/h 24 % 0.0 mm
17:01 28.9 °C 6.3 °C 1002.9 hPa WSW 13.0 km/h 13.0 km/h 24 % 0.0 mm
17:06 28.8 °C 6.2 °C 1002.9 hPa West 16.7 km/h 16.7 km/h 24 % 0.0 mm
17:11 28.8 °C 6.2 °C 1002.9 hPa WSW 16.7 km/h 16.7 km/h 24 % 0.0 mm
17:16 29.0 °C 6.4 °C 1002.9 hPa WSW 19.5 km/h 19.5 km/h 24 % 0.0 mm
17:21 28.6 °C 6.1 °C 1002.9 hPa WSW 14.8 km/h 14.8 km/h 24 % 0.0 mm
17:31 28.6 °C 6.1 °C 1002.9 hPa WSW 16.7 km/h 16.7 km/h 24 % 0.0 mm
17:36 28.5 °C 5.9 °C 1002.9 hPa WSW 15.6 km/h 15.6 km/h 24 % 0.0 mm
17:41 28.3 °C 5.8 °C 1002.9 hPa SW 20.4 km/h 20.4 km/h 24 % 0.0 mm
17:46 28.7 °C 6.1 °C 1002.9 hPa SW 9.7 km/h 10.0 km/h 24 % 0.0 mm
17:51 28.6 °C 5.4 °C 1002.9 hPa WSW 14.8 km/h 14.8 km/h 23 % 0.0 mm
17:56 28.8 °C 5.6 °C 1002.9 hPa West 10.3 km/h 10.3 km/h 23 % 0.0 mm
18:01 28.5 °C 5.3 °C 1001.9 hPa West 16.7 km/h 16.7 km/h 23 % 0.0 mm
18:06 28.8 °C 6.2 °C 1001.9 hPa SW 9.3 km/h 9.3 km/h 24 % 0.0 mm
18:11 29.0 °C 5.8 °C 1001.9 hPa West 9.3 km/h 9.3 km/h 23 % 0.0 mm
18:16 28.9 °C 5.7 °C 1002.9 hPa WSW 13.0 km/h 13.0 km/h 23 % 0.0 mm
18:26 28.9 °C 5.7 °C 1002.9 hPa NNW 20.4 km/h 20.4 km/h 23 % 0.0 mm
18:31 28.7 °C 5.5 °C 1002.9 hPa NW 9.3 km/h 9.3 km/h 23 % 0.0 mm
18:36 28.9 °C 5.7 °C 1002.9 hPa West 9.3 km/h 9.3 km/h 23 % 0.0 mm
18:41 28.7 °C 5.5 °C 1002.9 hPa SW 16.4 km/h 16.4 km/h 23 % 0.0 mm
18:46 28.9 °C 5.7 °C 1000.9 hPa West 9.3 km/h 9.3 km/h 23 % 0.0 mm
18:51 28.8 °C 5.6 °C 1000.9 hPa WSW 14.8 km/h 14.8 km/h 23 % 0.0 mm
18:56 28.6 °C 4.8 °C 1000.9 hPa SE 11.1 km/h 11.1 km/h 22 % 0.0 mm
19:01 28.7 °C 4.9 °C 1001.9 hPa West 13.0 km/h 13.7 km/h 22 % 0.0 mm
19:10 20.6 °C 11.8 °C 1003.9 hPa East 4.8 km/h 12.9 km/h 57 % 0.0 mm
19:11 28.5 °C 4.1 °C 1001.9 hPa SW 3.7 km/h 4.2 km/h 21 % 0.0 mm
19:16 28.4 °C 4.6 °C 1001.9 hPa SW 9.7 km/h 9.7 km/h 22 % 0.0 mm
19:20 20.4 °C 11.8 °C 1003.9 hPa ENE 4.8 km/h 12.9 km/h 58 % 0.0 mm
19:21 28.2 °C 4.4 °C 1001.9 hPa WSW 9.3 km/h 9.3 km/h 22 % 0.0 mm
19:26 28.0 °C 4.3 °C 1001.9 hPa WSW 6.1 km/h 6.4 km/h 22 % 0.0 mm
19:31 27.9 °C 4.2 °C 1001.9 hPa WSW 13.0 km/h 13.0 km/h 22 % 0.0 mm
19:36 27.7 °C 4.1 °C 1001.9 hPa SW 9.7 km/h 9.7 km/h 22 % 0.0 mm
19:41 27.7 °C 4.1 °C 1001.9 hPa WSW 7.4 km/h 9.0 km/h 22 % 0.0 mm
19:45 20.1 °C 12.3 °C 1003.9 hPa ENE 4.8 km/h 12.9 km/h 61 % 0.0 mm
19:46 27.9 °C 4.2 °C 1001.9 hPa WSW 9.3 km/h 9.3 km/h 22 % 0.0 mm
19:51 27.8 °C 4.8 °C 1001.9 hPa SSW 9.3 km/h 9.3 km/h 23 % 0.0 mm
19:55 19.9 °C 12.7 °C 1003.9 hPa ENE 4.8 km/h 12.9 km/h 63 % 0.0 mm
19:56 27.7 °C 4.7 °C 1001.9 hPa SW 11.1 km/h 11.1 km/h 23 % 0.0 mm
20:01 27.6 °C 4.6 °C 1001.9 hPa SW 7.4 km/h 7.6 km/h 23 % 0.0 mm
20:06 27.4 °C 4.4 °C 1001.9 hPa WSW 13.0 km/h 13.0 km/h 23 % 0.0 mm
20:11 27.3 °C 4.3 °C 1001.9 hPa SSE 13.0 km/h 13.0 km/h 23 % 0.0 mm
20:16 27.2 °C 4.9 °C 1001.9 hPa SSE 13.0 km/h 13.0 km/h 24 % 0.0 mm
20:21 26.7 °C 5.6 °C 1001.9 hPa SSE 13.0 km/h 13.0 km/h 26 % 0.0 mm
20:25 19.7 °C 12.7 °C 1003.9 hPa ENE 4.8 km/h 12.9 km/h 64 % 0.0 mm
20:26 26.1 °C 6.7 °C 1001.9 hPa SSE 13.0 km/h 13.0 km/h 29 % 0.0 mm
20:30 19.7 °C 12.7 °C 1002.9 hPa ENE 4.8 km/h 12.9 km/h 64 % 0.0 mm
20:31 25.7 °C 6.8 °C 1001.9 hPa SSE 13.0 km/h 13.0 km/h 30 % 0.0 mm
20:35 19.7 °C 12.7 °C 1002.9 hPa ENE 4.8 km/h 12.9 km/h 64 % 0.0 mm
20:36 25.4 °C 7.5 °C 1001.9 hPa SSE 13.0 km/h 13.0 km/h 32 % 0.0 mm
20:41 25.2 °C 7.8 °C 1001.9 hPa SSE 13.0 km/h 13.0 km/h 33 % 0.0 mm
20:45 19.6 °C 12.8 °C 1003.9 hPa ENE 4.8 km/h 12.9 km/h 65 % 0.0 mm
20:46 24.9 °C 8.4 °C 1001.9 hPa SSE 13.0 km/h 13.0 km/h 35 % 0.0 mm
20:50 19.6 °C 12.8 °C 1003.9 hPa ENE 4.8 km/h 12.9 km/h 65 % 0.0 mm
20:51 24.8 °C 8.7 °C 1001.9 hPa SSE 13.0 km/h 13.0 km/h 36 % 0.0 mm
20:55 19.6 °C 12.8 °C 1003.9 hPa ENE 4.8 km/h 12.9 km/h 65 % 0.0 mm
20:56 24.7 °C 8.6 °C 1001.9 hPa SSE 13.0 km/h 13.0 km/h 36 % 0.0 mm
21:01 24.6 °C 8.6 °C 1001.9 hPa SSE 13.0 km/h 13.0 km/h 36 % 0.0 mm
21:05 19.5 °C 13.0 °C 1003.9 hPa ENE 4.8 km/h 12.9 km/h 66 % 0.0 mm
21:11 24.3 °C 8.3 °C 1001.9 hPa SSE 13.0 km/h 13.0 km/h 36 % 0.0 mm
21:15 19.4 °C 12.9 °C 1003.9 hPa ENE 4.8 km/h 12.9 km/h 66 % 0.0 mm
21:16 24.2 °C 8.2 °C 1001.9 hPa SSE 13.0 km/h 13.0 km/h 36 % 0.0 mm
21:21 24.0 °C 8.4 °C 1001.9 hPa SSE 13.0 km/h 13.0 km/h 37 % 0.0 mm
21:25 19.2 °C 12.9 °C 1003.9 hPa ENE 4.8 km/h 12.9 km/h 67 % 0.0 mm
21:26 23.9 °C 8.3 °C 1001.9 hPa SSE 13.0 km/h 13.0 km/h 37 % 0.0 mm
21:31 23.8 °C 8.2 °C 1002.9 hPa SSE 13.0 km/h 13.0 km/h 37 % 0.0 mm
21:35 19.0 °C 12.9 °C 1003.9 hPa ENE 4.8 km/h 12.9 km/h 68 % 0.0 mm
21:36 23.7 °C 8.2 °C 1002.9 hPa SSE 13.0 km/h 13.0 km/h 37 % 0.0 mm
21:41 23.6 °C 8.1 °C 1002.9 hPa SSE 13.0 km/h 13.0 km/h 37 % 0.0 mm
21:45 18.9 °C 13.1 °C 1003.9 hPa ENE 4.8 km/h 12.9 km/h 69 % 0.0 mm
21:46 23.5 °C 8.3 °C 1002.9 hPa SSE 13.0 km/h 13.0 km/h 38 % 0.0 mm
21:51 23.4 °C 8.3 °C 1002.9 hPa SSE 13.0 km/h 13.0 km/h 38 % 0.0 mm
21:55 18.9 °C 13.3 °C 1003.9 hPa ENE 4.8 km/h 12.9 km/h 70 % 0.0 mm
21:56 23.4 °C 8.3 °C 1002.9 hPa SSE 13.0 km/h 13.0 km/h 38 % 0.0 mm
22:01 23.3 °C 8.2 °C 1002.9 hPa SSE 13.0 km/h 13.0 km/h 38 % 0.0 mm
22:05 18.8 °C 13.2 °C 1003.9 hPa ENE 4.8 km/h 12.9 km/h 70 % 0.0 mm
22:06 23.2 °C 8.5 °C 1002.9 hPa SSE 13.0 km/h 13.0 km/h 39 % 0.0 mm
22:11 23.1 °C 8.8 °C 1002.9 hPa SSE 13.0 km/h 13.0 km/h 40 % 0.0 mm
22:15 18.8 °C 13.4 °C 1002.9 hPa ENE 4.8 km/h 12.9 km/h 71 % 0.0 mm
22:16 23.0 °C 9.1 °C 1002.9 hPa SSE 13.0 km/h 13.0 km/h 41 % 0.0 mm
22:21 22.8 °C 9.2 °C 1002.9 hPa SSE 13.0 km/h 13.0 km/h 42 % 0.0 mm
22:25 18.8 °C 13.4 °C 1002.9 hPa ENE 4.8 km/h 12.9 km/h 71 % 0.0 mm
22:26 22.8 °C 9.6 °C 1002.9 hPa SSE 13.0 km/h 13.0 km/h 43 % 0.0 mm
22:31 22.7 °C 9.8 °C 1002.9 hPa SSE 13.0 km/h 13.0 km/h 44 % 0.0 mm
22:36 22.6 °C 9.7 °C 1002.9 hPa SSE 13.0 km/h 13.0 km/h 44 % 0.0 mm
22:41 22.5 °C 9.9 °C 1002.9 hPa SSE 13.0 km/h 13.0 km/h 45 % 0.0 mm
22:45 18.7 °C 13.6 °C 1002.9 hPa ENE 3.2 km/h 3.2 km/h 72 % 0.0 mm
22:46 22.2 °C 10.0 °C 1003.9 hPa SSE 13.0 km/h 13.0 km/h 46 % 0.0 mm
22:51 22.1 °C 10.3 °C 1003.9 hPa SSE 13.0 km/h 13.0 km/h 47 % 0.0 mm
22:55 18.6 °C 13.4 °C 1002.9 hPa ENE 3.2 km/h 3.2 km/h 72 % 0.0 mm
22:56 21.9 °C 10.4 °C 1003.9 hPa SSE 13.0 km/h 13.0 km/h 48 % 0.0 mm
23:01 21.7 °C 10.5 °C 1003.9 hPa SSE 13.0 km/h 13.0 km/h 49 % 0.0 mm
23:05 18.5 °C 13.3 °C 1002.9 hPa ENE 3.2 km/h 3.2 km/h 72 % 0.0 mm
23:06 21.6 °C 10.4 °C 1003.9 hPa SSE 13.0 km/h 13.0 km/h 49 % 0.0 mm
23:11 21.5 °C 10.3 °C 1003.9 hPa SSE 13.0 km/h 13.0 km/h 49 % 0.0 mm
23:15 18.5 °C 13.3 °C 1002.9 hPa ENE 3.2 km/h 3.2 km/h 72 % 0.0 mm
23:16 21.5 °C 10.6 °C 1003.9 hPa SSE 13.0 km/h 13.0 km/h 50 % 0.0 mm
23:22 21.4 °C 10.6 °C 1003.9 hPa SSE 13.0 km/h 13.0 km/h 50 % 0.0 mm
23:25 18.3 °C 13.4 °C 1002.9 hPa Calm   3.2 km/h 73 % 0.0 mm
23:26 21.3 °C 10.4 °C 1003.9 hPa SSE 13.0 km/h 13.0 km/h 50 % 0.0 mm
23:31 21.2 °C 10.7 °C 1003.9 hPa SSE 13.0 km/h 13.0 km/h 51 % 0.0 mm
23:36 21.1 °C 10.6 °C 1003.9 hPa SSE 13.0 km/h 13.0 km/h 51 % 0.0 mm
23:41 21.1 °C 10.8 °C 1003.9 hPa SSE 13.0 km/h 13.0 km/h 52 % 0.0 mm
23:45 18.3 °C 13.4 °C 1002.9 hPa Calm   3.2 km/h 73 % 0.0 mm
23:46 21.0 °C 11.1 °C 1003.9 hPa SSE 13.0 km/h 13.0 km/h 53 % 0.0 mm
23:52 20.9 °C 11.5 °C 1003.9 hPa SSE 13.0 km/h 13.0 km/h 55 % 0.0 mm
23:55 18.2 °C 13.3 °C 1002.9 hPa Calm   3.2 km/h 73 % 0.0 mm
23:57 20.8 °C 11.7 °C 1003.9 hPa ENE 13.0 km/h 13.0 km/h 56 % 0.0 mm
Meteo Sesrovires
Elogis d' Weather Underground - 3.75 mb

Guio original per  Jim McMurry - jmcmurry@mwt.net Adaptat per a la plantilla per  Wim van der Kuil - Leuven-Template.eu

Trobareu la nostra informacio del temps tambe a:

Weather Underground

AWEKAS